Time;durP1;ratioP1;P1;durP2;ratioP2;P2;SDS_P1;SDS_P2;PMS_P1;PMS_P2;Temp;Humidity;BMP_temperature;BMP_pressure;BME280_temperature;BME280_humidity;BME280_pressure;Samples;Min_cycle;Max_cycle;Signal;HPM_P1;HPM_P2
2022/08/30 08:01:47;;;;;;;6.68;6.07;;;;;;;19.33;70.09;101914.06;5285155;28;20393;-73
2022/08/30 08:04:18;;;;;;;11.07;8.43;;;;;;;19.37;69.48;101919.84;5289133;28;20033;-73
2022/08/30 08:06:49;;;;;;;31.65;28.42;;;;;;;19.20;70.24;101919.75;5294062;28;20443;-73
2022/08/30 08:09:21;;;;;;;9.48;8.68;;;;;;;19.30;69.63;101914.69;5280652;28;20110;-73
2022/08/30 08:11:52;;;;;;;7.95;7.25;;;;;;;19.36;69.83;101921.00;5280441;28;20146;-74
2022/08/30 08:14:24;;;;;;;6.85;5.70;;;;;;;19.64;68.41;101913.19;5287670;28;20174;-73
2022/08/30 08:16:56;;;;;;;9.93;7.18;;;;;;;19.46;69.55;101917.09;5288544;28;20024;-73
2022/08/30 08:19:27;;;;;;;8.18;7.22;;;;;;;19.46;69.28;101917.91;5281886;28;20031;-73
2022/08/30 08:21:59;;;;;;;164.25;25.15;;;;;;;19.48;69.99;101923.19;5293194;28;20017;-73
2022/08/30 08:24:33;;;;;;;9.57;6.95;;;;;;;19.57;68.83;101912.81;5290376;28;20038;-73
2022/08/30 08:27:04;;;;;;;12.35;7.50;;;;;;;19.60;69.09;101916.97;5272391;28;20025;-71
2022/08/30 08:29:36;;;;;;;7.50;6.80;;;;;;;19.58;69.50;101931.34;5266977;28;20120;-73
2022/08/30 08:32:07;;;;;;;9.75;8.85;;;;;;;19.52;69.76;101927.84;5272179;28;20060;-74
2022/08/30 08:34:40;;;;;;;9.80;8.90;;;;;;;19.52;69.91;101922.22;5272802;28;20044;-73
2022/08/30 08:37:13;;;;;;;8.70;7.70;;;;;;;19.52;69.65;101927.84;5292116;28;20166;-74
2022/08/30 08:39:44;;;;;;;7.07;6.03;;;;;;;19.83;68.64;101927.00;5283468;28;20297;-74
2022/08/30 08:42:28;;;;;;;8.35;6.65;;;;;;;19.79;69.00;101917.56;5296076;28;20081;-73
2022/08/30 08:45:13;;;;;;;8.50;6.88;;;;;;;19.81;68.58;101926.50;5265014;28;20388;-73
2022/08/30 08:47:58;;;;;;;7.88;6.65;;;;;;;19.97;68.33;101921.25;5268653;28;20067;-73
2022/08/30 08:50:29;;;;;;;6.35;5.50;;;;;;;20.13;67.37;101930.06;5281779;28;20450;-73
2022/08/30 08:53:53;;;;;;;7.28;5.50;;;;;;;20.34;66.57;101931.06;5294091;28;20024;-74
2022/08/30 08:56:13;;;;;;;6.90;5.63;;;;;;;20.36;66.25;101931.59;5273966;28;20387;-73
2022/08/30 08:58:48;;;;;;;5.40;4.90;;;;;;;20.41;66.00;101931.41;5293143;28;20024;-73
2022/08/30 09:01:24;;;;;;;6.63;5.13;;;;;;;20.39;65.56;101928.09;5270725;28;20488;-73
2022/08/30 09:03:57;;;;;;;10.05;5.35;;;;;;;20.51;65.86;101930.28;5292538;28;20464;-73
2022/08/30 09:06:50;;;;;;;7.57;5.13;;;;;;;20.50;64.50;101927.78;5276140;28;20047;-73
2022/08/30 09:09:35;;;;;;;6.22;4.72;;;;;;;20.62;64.77;101930.78;5277513;28;20029;-73
2022/08/30 09:12:10;;;;;;;10.27;4.10;;;;;;;20.76;63.62;101925.81;5282928;28;20564;-73
2022/08/30 09:14:50;;;;;;;5.03;2.90;;;;;;;20.97;62.37;101925.13;5270955;28;20067;-73
2022/08/30 09:17:22;;;;;;;4.85;3.83;;;;;;;21.11;61.24;101922.91;5275140;28;20069;-74
2022/08/30 09:19:59;;;;;;;13.65;4.03;;;;;;;21.24;60.90;101924.72;5275707;28;20021;-72
2022/08/30 09:22:41;;;;;;;5.60;3.03;;;;;;;21.18;61.59;101925.25;5263926;28;20029;-72
2022/08/30 09:25:12;;;;;;;3.78;2.60;;;;;;;21.27;60.57;101929.69;5277504;28;20029;-70
2022/08/30 09:27:46;;;;;;;7.80;3.47;;;;;;;21.30;59.94;101921.72;5265609;28;20033;-72
2022/08/30 09:30:26;;;;;;;5.90;3.35;;;;;;;21.36;59.60;101928.84;5275433;28;20319;-72
2022/08/30 09:33:00;;;;;;;3.35;2.80;;;;;;;21.39;59.96;101925.38;5279861;28;20028;-72
2022/08/30 09:35:33;;;;;;;5.55;2.85;;;;;;;21.55;59.13;101929.31;5262493;28;20494;-72
2022/08/30 09:38:05;;;;;;;7.50;3.20;;;;;;;21.52;58.78;101924.31;5274691;28;20029;-71
2022/08/30 09:40:42;;;;;;;3.53;3.07;;;;;;;21.51;59.26;101922.66;5252400;28;20548;-71
2022/08/30 09:43:16;;;;;;;4.85;3.00;;;;;;;21.52;59.74;101923.50;5270451;28;20378;-70
2022/08/30 09:46:05;;;;;;;3.78;2.60;;;;;;;21.61;59.16;101922.28;5275549;28;20420;-71
2022/08/30 09:48:39;;;;;;;23.60;21.20;;;;;;;21.66;58.33;101924.09;5259844;28;20017;-72
2022/08/30 09:51:10;;;;;;;8.90;4.75;;;;;;;21.63;58.13;101919.13;5266869;28;20017;-71
2022/08/30 09:54:04;;;;;;;3.47;2.60;;;;;;;21.77;58.13;101924.53;5272837;28;20032;-72
2022/08/30 09:57:04;;;;;;;4.20;2.55;;;;;;;21.89;58.28;101930.28;5265667;28;20380;-71
2022/08/30 09:59:47;;;;;;;3.40;2.80;;;;;;;21.79;58.15;101930.69;5251247;28;20707;-70
2022/08/30 10:02:27;;;;;;;3.55;2.80;;;;;;;21.86;57.40;101922.50;5258743;28;20036;-72
2022/08/30 10:05:06;;;;;;;16.00;12.98;;;;;;;21.81;57.53;101922.69;5261067;28;20029;-75
2022/08/30 10:07:57;;;;;;;7.00;4.25;;;;;;;21.87;57.54;101924.16;5247392;28;20032;-73
2022/08/30 10:10:36;;;;;;;5.53;3.05;;;;;;;21.84;56.80;101916.38;5264407;28;20063;-73
2022/08/30 10:13:30;;;;;;;3.55;2.70;;;;;;;21.94;56.78;101918.81;5267051;28;20032;-72
2022/08/30 10:16:21;;;;;;;3.10;2.80;;;;;;;22.04;56.65;101920.41;5257827;28;20029;-73
2022/08/30 10:19:38;;;;;;;4.05;2.70;;;;;;;22.08;56.43;101919.34;5272285;28;20536;-73
2022/08/30 10:22:12;;;;;;;;;;;;;;;22.18;56.63;101911.66;5264957;28;20503;-74
2022/08/30 10:24:49;;;;;;;5.35;2.50;;;;;;;22.15;56.44;101908.34;5267651;28;20302;-73
2022/08/30 10:27:27;;;;;;;5.80;2.47;;;;;;;22.21;55.66;101916.66;5277587;28;20093;-74
2022/08/30 10:30:07;;;;;;;3.85;2.60;;;;;;;22.30;55.40;101908.94;5270135;28;20036;-74
2022/08/30 10:32:44;;;;;;;6.78;2.22;;;;;;;22.28;54.87;101911.28;5270711;28;20021;-73
2022/08/30 10:35:21;;;;;;;4.78;2.33;;;;;;;22.36;54.84;101910.38;5276569;28;20073;-73
2022/08/30 10:38:09;;;;;;;4.07;2.30;;;;;;;22.50;54.89;101919.41;5268756;28;20388;-72
2022/08/30 10:43:51;;;;;;;;;;;;;;;22.63;54.67;101911.00;5251959;28;20029;-73
2022/08/30 10:46:36;;;;;;;2.55;2.30;;;;;;;22.62;53.49;101915.81;5271739;28;20066;-73
2022/08/30 10:49:21;;;;;;;5.50;2.60;;;;;;;22.60;53.69;101908.84;5247718;28;20029;-72
2022/08/30 10:52:11;;;;;;;2.88;2.28;;;;;;;22.68;53.25;101911.63;5269094;28;20530;-72
2022/08/30 10:54:49;;;;;;;3.70;2.80;;;;;;;22.50;53.15;101912.94;5268624;28;20468;-74
2022/08/30 10:57:20;;;;;;;6.03;2.20;;;;;;;22.68;53.39;101899.50;5266571;28;20017;-73
2022/08/30 11:00:01;;;;;;;7.85;2.40;;;;;;;22.77;53.11;101900.22;5259163;28;20396;-74
2022/08/30 11:03:02;;;;;;;3.70;2.47;;;;;;;22.83;52.82;101898.84;5270383;28;20086;-74
2022/08/30 11:05:57;;;;;;;7.13;2.70;;;;;;;22.83;52.40;101903.66;5254147;28;20040;-73
2022/08/30 11:08:56;;;;;;;5.07;2.53;;;;;;;22.94;52.75;101905.69;5271238;28;20067;-73
2022/08/30 11:12:06;;;;;;;4.10;2.20;;;;;;;23.09;51.79;101894.94;5277204;28;20029;-73
2022/08/30 11:14:42;;;;;;;7.55;5.20;;;;;;;23.18;51.44;101892.81;5273726;28;20033;-73
2022/08/30 11:17:24;;;;;;;16.27;14.68;;;;;;;23.27;52.25;101893.56;5262999;28;20032;-73
2022/08/30 11:19:59;;;;;;;4.38;2.53;;;;;;;23.35;50.83;101905.94;5263941;28;20455;-73
2022/08/30 11:22:35;;;;;;;4.70;2.08;;;;;;;23.36;50.46;101896.25;5247411;28;20037;-73
2022/08/30 11:25:10;;;;;;;6.00;1.90;;;;;;;23.32;50.80;101898.97;5265276;28;20090;-73
2022/08/30 11:27:48;;;;;;;3.37;2.27;;;;;;;23.32;50.68;101901.00;5275442;28;20024;-73
2022/08/30 11:30:25;;;;;;;5.20;2.10;;;;;;;23.28;50.84;101897.19;5258826;28;20290;-72
2022/08/30 11:33:24;;;;;;;5.47;2.35;;;;;;;23.30;51.00;101895.69;5262602;28;20365;-72
2022/08/30 11:35:56;;;;;;;14.45;11.40;;;;;;;23.42;50.13;101892.88;5254764;28;20476;-72
2022/08/30 11:38:27;;;;;;;4.28;2.45;;;;;;;23.29;50.12;101896.88;5266699;28;20026;-71
2022/08/30 11:41:11;;;;;;;5.95;2.10;;;;;;;23.33;50.79;101894.97;5258469;28;20028;-71
2022/08/30 11:43:43;;;;;;;5.15;2.20;;;;;;;23.43;50.14;101893.69;5257851;28;20172;-71
2022/08/30 11:46:26;;;;;;;4.88;2.22;;;;;;;23.50;50.52;101893.09;5264886;28;20491;-71
2022/08/30 11:49:12;;;;;;;7.20;5.28;;;;;;;23.52;49.73;101885.06;5264161;28;20480;-71
2022/08/30 11:51:53;;;;;;;5.18;3.42;;;;;;;23.67;48.96;101887.19;5248913;28;20094;-71
2022/08/30 11:54:34;;;;;;;6.22;2.10;;;;;;;23.60;48.95;101887.81;5245028;28;20021;-71
2022/08/30 11:57:42;;;;;;;6.15;2.20;;;;;;;23.55;49.23;101878.72;5240459;28;20100;-73
2022/08/30 12:00:39;;;;;;;5.68;2.72;;;;;;;23.61;49.43;101868.81;5267454;28;20411;-70
2022/08/30 12:03:13;;;;;;;4.28;2.22;;;;;;;23.70;49.52;101866.69;5255613;28;20434;-72
2022/08/30 12:05:49;;;;;;;4.00;2.13;;;;;;;23.72;48.81;101867.16;5251275;28;20037;-73
2022/08/30 12:08:32;;;;;;;3.22;1.85;;;;;;;23.83;49.13;101862.69;5252829;28;20025;-72
2022/08/30 12:11:13;;;;;;;4.25;2.38;;;;;;;23.85;48.23;101868.81;5271741;28;20437;-72
2022/08/30 12:13:44;;;;;;;4.00;2.10;;;;;;;23.92;47.90;101854.03;5258648;28;20032;-72
2022/08/30 12:19:37;;;;;;;4.38;2.58;;;;;;;24.02;47.51;101870.53;5248478;28;20757;-69
2022/08/30 12:22:15;;;;;;;7.60;4.88;;;;;;;24.14;47.09;101866.88;5268051;28;20029;-70
2022/08/30 12:24:50;;;;;;;10.48;6.57;;;;;;;24.01;47.20;101865.25;5258771;28;20025;-72
2022/08/30 12:27:22;;;;;;;;;;;;;;;24.20;46.90;101868.25;5275971;28;20033;-72
2022/08/30 12:30:00;;;;;;;3.97;2.40;;;;;;;24.18;47.02;101867.78;5254048;28;20368;-71
2022/08/30 12:32:31;;;;;;;5.47;2.10;;;;;;;24.22;46.60;101863.06;5256580;28;20063;-72
2022/08/30 12:35:05;;;;;;;3.47;2.15;;;;;;;24.34;46.03;101865.03;5276058;28;20163;-72
2022/08/30 12:37:38;;;;;;;3.08;1.95;;;;;;;24.24;45.99;101866.38;5247423;28;20394;-72
2022/08/30 12:40:19;;;;;;;2.65;2.00;;;;;;;24.33;46.17;101860.53;5271028;28;20032;-72
2022/08/30 12:43:06;;;;;;;5.03;3.10;;;;;;;24.44;46.42;101853.19;5264793;28;20037;-72
2022/08/30 12:45:42;;;;;;;19.95;17.80;;;;;;;24.47;46.10;101863.84;5258485;28;20029;-72
2022/08/30 12:48:17;;;;;;;7.13;3.85;;;;;;;24.43;45.88;101857.19;5268698;28;20111;-72
2022/08/30 12:50:58;;;;;;;4.00;2.70;;;;;;;24.32;44.80;101855.25;5267150;28;20047;-70
2022/08/30 12:53:40;;;;;;;4.75;2.45;;;;;;;24.42;45.61;101855.56;5279762;28;20074;-72
2022/08/30 12:56:15;;;;;;;7.22;2.05;;;;;;;24.73;45.26;101848.38;5261652;28;20119;-72
2022/08/30 12:58:51;;;;;;;3.70;1.90;;;;;;;24.86;44.28;101846.28;5259869;28;20032;-75
2022/08/30 13:01:32;;;;;;;4.93;2.60;;;;;;;24.94;43.28;101845.28;5271194;28;20113;-72
2022/08/30 13:04:26;;;;;;;5.53;3.50;;;;;;;25.11;43.30;101847.78;5268827;28;20033;-71
2022/08/30 13:06:59;;;;;;;3.25;1.90;;;;;;;25.12;42.61;101855.09;5273008;28;20471;-71
2022/08/30 13:09:34;;;;;;;5.50;2.28;;;;;;;25.14;42.51;101847.03;5263385;28;20098;-71
2022/08/30 13:12:20;;;;;;;4.03;2.10;;;;;;;25.20;42.58;101844.78;5275823;28;20426;-71
2022/08/30 13:15:07;;;;;;;6.72;4.28;;;;;;;25.33;42.16;101837.81;5266933;28;20108;-71
2022/08/30 13:17:38;;;;;;;7.03;6.25;;;;;;;25.43;42.21;101836.44;5263685;28;20033;-72
2022/08/30 13:20:15;;;;;;;8.57;5.90;;;;;;;25.46;42.12;101830.00;5273281;28;20028;-72
2022/08/30 13:23:07;;;;;;;5.43;2.30;;;;;;;25.34;41.97;101832.97;5270207;28;20052;-71
2022/08/30 13:25:38;;;;;;;5.13;2.38;;;;;;;24.97;42.21;101830.34;5250904;28;20036;-73
2022/08/30 13:28:10;;;;;;;5.18;2.40;;;;;;;25.02;41.84;101832.94;5269878;28;20016;-72
2022/08/30 13:30:41;;;;;;;6.18;2.28;;;;;;;24.82;42.60;101822.66;5266859;28;20029;-71
2022/08/30 13:33:12;;;;;;;5.43;2.45;;;;;;;24.75;43.43;101817.63;5252235;28;20100;-71
2022/08/30 13:35:44;;;;;;;4.53;2.10;;;;;;;24.74;42.90;101810.28;5277165;28;20083;-71
2022/08/30 13:38:15;;;;;;;4.35;2.08;;;;;;;24.81;42.27;101815.34;5243342;28;20098;-71
2022/08/30 13:40:46;;;;;;;4.90;1.90;;;;;;;24.76;42.57;101813.59;5269197;28;20031;-68
2022/08/30 13:43:20;;;;;;;9.20;8.25;;;;;;;24.85;42.34;101810.56;5266809;28;20032;-70
2022/08/30 13:45:52;;;;;;;4.85;4.35;;;;;;;24.91;42.44;101820.47;5275039;28;20025;-72
2022/08/30 13:48:24;;;;;;;7.88;2.17;;;;;;;25.07;41.97;101818.47;5266239;28;20105;-73
2022/08/30 13:50:55;;;;;;;7.03;2.20;;;;;;;24.94;41.95;101814.06;5274238;28;20024;-72
2022/08/30 13:53:27;;;;;;;19.30;17.45;;;;;;;25.11;41.65;101812.91;5266484;28;20023;-69
2022/08/30 13:56:00;;;;;;;24.75;22.20;;;;;;;25.11;41.01;101813.72;5264346;28;20024;-69
2022/08/30 13:58:31;;;;;;;5.55;2.45;;;;;;;25.20;41.00;101815.56;5257819;28;20488;-74
2022/08/30 14:01:03;;;;;;;3.72;2.05;;;;;;;25.43;40.94;101805.19;5245819;28;20072;-71
2022/08/30 14:03:34;;;;;;;6.72;3.88;;;;;;;25.26;40.45;101799.91;5255959;28;20511;-70
2022/08/30 14:06:06;;;;;;;6.25;4.43;;;;;;;25.29;40.92;101793.50;5251338;28;20052;-70
2022/08/30 14:08:37;;;;;;;4.03;3.00;;;;;;;25.26;40.75;101805.56;5254122;28;20032;-70
2022/08/30 14:11:14;;;;;;;4.13;2.88;;;;;;;25.42;40.38;101806.41;5248883;28;20388;-70
2022/08/30 14:13:47;;;;;;;5.82;3.13;;;;;;;25.57;40.42;101810.41;5253102;28;20463;-70
2022/08/30 14:16:18;;;;;;;4.22;1.70;;;;;;;25.47;40.20;101803.28;5264180;28;20021;-71
2022/08/30 14:18:50;;;;;;;3.15;2.00;;;;;;;25.45;40.15;101796.31;5250573;28;20075;-70
2022/08/30 14:21:21;;;;;;;4.30;2.42;;;;;;;25.45;39.85;101794.31;5255900;28;20121;-69
2022/08/30 14:23:54;;;;;;;9.30;6.57;;;;;;;25.23;39.52;101798.63;5268755;28;20035;-69
2022/08/30 14:26:29;;;;;;;7.53;2.80;;;;;;;25.15;40.19;101806.09;5263737;28;20044;-69
2022/08/30 14:29:03;;;;;;;5.95;2.92;;;;;;;25.13;40.10;101804.81;5264195;28;20028;-70
2022/08/30 14:31:35;;;;;;;4.80;2.70;;;;;;;25.22;40.09;101813.19;5243053;28;20111;-70
2022/08/30 14:34:09;;;;;;;4.65;2.40;;;;;;;25.40;39.75;101805.94;5250348;28;20030;-70
2022/08/30 14:36:42;;;;;;;6.03;2.35;;;;;;;25.42;39.53;101802.75;5246508;28;20467;-67
2022/08/30 14:39:17;;;;;;;4.85;1.92;;;;;;;25.35;39.28;101800.53;5274722;28;20036;-67
2022/08/30 14:41:51;;;;;;;5.68;2.13;;;;;;;25.49;39.32;101800.91;5257078;28;20024;-70
2022/08/30 14:44:23;;;;;;;4.20;1.85;;;;;;;25.58;38.90;101801.50;5270258;28;20490;-67
2022/08/30 14:46:56;;;;;;;4.50;2.22;;;;;;;25.39;38.41;101790.09;5247550;28;20116;-68
2022/08/30 14:49:27;;;;;;;2.72;2.03;;;;;;;25.54;38.59;101789.25;5261746;28;20044;-69
2022/08/30 14:52:02;;;;;;;5.95;1.85;;;;;;;25.57;38.48;101788.50;5264146;28;20032;-68
2022/08/30 14:54:34;;;;;;;4.85;2.70;;;;;;;25.52;39.00;101785.13;5261408;28;20430;-68
2022/08/30 14:57:05;;;;;;;2.83;2.33;;;;;;;25.51;39.00;101787.13;5265639;28;20108;-68
2022/08/30 14:59:36;;;;;;;6.88;2.28;;;;;;;25.64;39.19;101789.84;5276285;28;20536;-69
2022/08/30 15:02:07;;;;;;;11.27;8.73;;;;;;;25.54;38.47;101783.56;5253964;28;20033;-70
2022/08/30 15:04:39;;;;;;;5.70;3.40;;;;;;;25.43;38.31;101776.81;5249156;28;20034;-68
2022/08/30 15:07:10;;;;;;;8.07;3.30;;;;;;;25.27;38.83;101784.53;5273634;28;20063;-69
2022/08/30 15:09:43;;;;;;;102.30;26.23;;;;;;;25.28;39.10;101780.50;5258728;28;20060;-70
2022/08/30 15:12:14;;;;;;;41.75;5.22;;;;;;;25.14;39.26;101773.25;5270820;28;20102;-71
2022/08/30 15:14:46;;;;;;;12.90;2.70;;;;;;;25.14;39.55;101778.91;5257326;28;20030;-71
2022/08/30 15:17:18;;;;;;;60.38;15.10;;;;;;;25.24;39.39;101776.75;5277181;28;20089;-71
2022/08/30 15:19:52;;;;;;;3.47;2.20;;;;;;;25.19;39.36;101774.19;5259283;28;20195;-68
2022/08/30 15:22:23;;;;;;;3.20;2.38;;;;;;;25.23;39.50;101763.75;5260985;28;20036;-68
2022/08/30 15:24:54;;;;;;;4.47;3.35;;;;;;;25.23;39.14;101769.41;5263776;28;20025;-69
2022/08/30 15:27:26;;;;;;;4.80;1.92;;;;;;;25.13;39.31;101765.94;5276715;28;20037;-72
2022/08/30 15:29:57;;;;;;;3.42;2.00;;;;;;;24.99;39.64;101759.88;5269229;28;20020;-70
2022/08/30 15:32:29;;;;;;;5.50;2.70;;;;;;;25.01;39.97;101757.50;5273667;28;20082;-67
2022/08/30 15:35:04;;;;;;;3.53;1.73;;;;;;;24.89;39.60;101758.41;5263349;28;20025;-71
2022/08/30 15:37:36;;;;;;;5.30;3.15;;;;;;;24.89;40.15;101758.41;5249529;28;20063;-73
2022/08/30 15:40:08;;;;;;;4.07;2.00;;;;;;;24.80;40.05;101762.63;5266623;28;20025;-74
2022/08/30 15:42:40;;;;;;;4.38;2.40;;;;;;;24.83;40.51;101754.22;5262707;28;20033;-74
2022/08/30 15:45:11;;;;;;;15.00;12.07;;;;;;;24.86;40.23;101764.84;5254739;28;20380;-74
2022/08/30 15:47:42;;;;;;;7.20;3.00;;;;;;;24.78;40.15;101765.03;5272490;28;20029;-74
2022/08/30 15:50:15;;;;;;;5.10;2.28;;;;;;;24.69;39.95;101757.50;5265932;28;20115;-74
2022/08/30 15:52:46;;;;;;;4.38;1.83;;;;;;;24.59;40.17;101763.69;5276776;28;20117;-74
2022/08/30 15:55:17;;;;;;;37.88;33.50;;;;;;;24.58;40.25;101756.38;5251634;28;20038;-73
2022/08/30 15:57:49;;;;;;;9.50;6.22;;;;;;;24.56;40.59;101758.75;5278012;28;20045;-74
2022/08/30 16:00:20;;;;;;;12.07;7.95;;;;;;;24.52;41.04;101763.53;5255375;28;20076;-75
2022/08/30 16:02:52;;;;;;;5.90;2.45;;;;;;;24.51;41.36;101756.19;5270298;28;20036;-79
2022/08/30 16:05:23;;;;;;;7.10;2.42;;;;;;;24.48;41.23;101745.59;5264717;28;20036;-76
2022/08/30 16:07:54;;;;;;;4.45;2.00;;;;;;;24.44;40.95;101750.28;5274185;28;20032;-78
2022/08/30 16:10:25;;;;;;;4.40;2.03;;;;;;;24.48;41.18;101746.41;5267094;28;20067;-78
2022/08/30 16:12:58;;;;;;;3.00;1.80;;;;;;;24.56;40.93;101761.59;5254581;28;20096;-78
2022/08/30 16:15:30;;;;;;;6.55;2.10;;;;;;;24.58;41.72;101747.88;5270092;28;20044;-76
2022/08/30 16:18:01;;;;;;;4.75;2.10;;;;;;;24.51;40.94;101750.53;5253360;28;20025;-78
2022/08/30 16:20:33;;;;;;;3.83;1.90;;;;;;;24.32;40.78;101750.38;5264684;28;20032;-79
2022/08/30 16:23:04;;;;;;;11.55;8.27;;;;;;;24.41;40.92;101746.16;5256075;28;20099;-78
2022/08/30 16:25:36;;;;;;;5.20;2.60;;;;;;;24.34;41.17;101736.66;5257677;28;20111;-78
2022/08/30 16:28:07;;;;;;;4.47;2.35;;;;;;;24.26;40.73;101738.44;5268801;28;20439;-78
2022/08/30 16:30:39;;;;;;;5.40;2.75;;;;;;;24.29;40.58;101732.91;5270391;28;20033;-78
2022/08/30 16:33:10;;;;;;;3.72;2.10;;;;;;;24.30;40.69;101730.88;5263787;28;20025;-78
2022/08/30 16:35:42;;;;;;;5.82;2.22;;;;;;;24.24;40.92;101721.84;5280595;28;20044;-78
2022/08/30 16:38:13;;;;;;;5.95;1.80;;;;;;;24.34;40.81;101733.81;5273257;28;20024;-78
2022/08/30 16:40:48;;;;;;;5.35;2.00;;;;;;;24.32;40.61;101731.34;5277615;28;20032;-77
2022/08/30 16:43:20;;;;;;;7.57;2.20;;;;;;;24.21;41.67;101731.06;5267484;28;20029;-78
2022/08/30 16:45:52;;;;;;;5.22;1.92;;;;;;;24.34;41.06;101730.97;5270299;28;20026;-76
2022/08/30 16:48:23;;;;;;;3.05;1.90;;;;;;;24.38;40.80;101734.75;5273869;28;20029;-77
2022/08/30 16:50:55;;;;;;;3.13;1.80;;;;;;;24.24;40.68;101741.66;5279010;28;20024;-79
2022/08/30 16:53:28;;;;;;;5.35;2.22;;;;;;;24.25;40.79;101740.47;5263079;28;20123;-78
2022/08/30 16:56:03;;;;;;;5.40;1.80;;;;;;;24.24;40.65;101740.84;5254805;28;20407;-78
2022/08/30 16:58:35;;;;;;;3.85;1.80;;;;;;;24.27;40.95;101735.28;5276497;28;20494;-79
2022/08/30 17:01:07;;;;;;;5.65;2.13;;;;;;;24.28;40.79;101741.75;5284019;28;20040;-79
2022/08/30 17:03:39;;;;;;;5.43;1.95;;;;;;;24.33;40.43;101746.34;5254513;28;20033;-79
2022/08/30 17:06:10;;;;;;;6.82;1.88;;;;;;;24.25;40.53;101736.81;5273870;28;20028;-79
2022/08/30 17:08:42;;;;;;;3.67;2.08;;;;;;;24.15;40.46;101734.50;5286027;28;20094;-78
2022/08/30 17:11:13;;;;;;;7.32;2.15;;;;;;;24.12;40.20;101740.91;5268548;28;20472;-77
2022/08/30 17:13:48;;;;;;;4.15;1.90;;;;;;;24.23;40.46;101742.84;5278959;28;20070;-77
2022/08/30 17:16:20;;;;;;;4.90;2.00;;;;;;;24.16;40.34;101738.97;5275020;28;20031;-77
2022/08/30 17:18:51;;;;;;;5.53;2.05;;;;;;;24.14;40.27;101741.38;5268980;28;20029;-77
2022/08/30 17:21:22;;;;;;;3.70;1.90;;;;;;;24.04;40.54;101743.53;5281201;28;20091;-77
2022/08/30 17:23:54;;;;;;;4.55;1.95;;;;;;;24.04;40.51;101746.34;5264834;28;20024;-77
2022/08/30 17:26:25;;;;;;;6.43;2.15;;;;;;;24.00;40.36;101741.75;5275482;28;20493;-77
2022/08/30 17:28:57;;;;;;;4.85;2.08;;;;;;;24.04;40.60;101742.72;5269474;28;20048;-77
2022/08/30 17:31:29;;;;;;;3.08;1.63;;;;;;;23.86;40.52;101742.19;5259877;28;20013;-77
